sensor_id;sensor_type;location;lat;lon;timestamp;temperature;humidity
10306;DHT22;5198;52.382;9.020;2023-07-31T00:02:38;17.60;99.90
10306;DHT22;5198;52.382;9.020;2023-07-31T00:06:43;17.60;99.90
10306;DHT22;5198;52.382;9.020;2023-07-31T00:10:46;17.60;99.90
10306;DHT22;5198;52.382;9.020;2023-07-31T00:14:49;17.60;99.90
10306;DHT22;5198;52.382;9.020;2023-07-31T00:18:51;17.50;99.90
10306;DHT22;5198;52.382;9.020;2023-07-31T00:22:56;17.50;99.90
10306;DHT22;5198;52.382;9.020;2023-07-31T00:26:59;17.60;99.90
10306;DHT22;5198;52.382;9.020;2023-07-31T00:31:02;17.60;99.90
10306;DHT22;5198;52.382;9.020;2023-07-31T00:35:05;17.50;99.90
10306;DHT22;5198;52.382;9.020;2023-07-31T00:39:09;17.50;99.90
10306;DHT22;5198;52.382;9.020;2023-07-31T00:43:12;17.50;99.90
10306;DHT22;5198;52.382;9.020;2023-07-31T00:47:15;17.50;99.90
10306;DHT22;5198;52.382;9.020;2023-07-31T00:51:18;17.50;99.90
10306;DHT22;5198;52.382;9.020;2023-07-31T00:55:22;17.50;99.90
10306;DHT22;5198;52.382;9.020;2023-07-31T00:59:25;17.50;99.90
10306;DHT22;5198;52.382;9.020;2023-07-31T01:03:28;17.50;99.90
10306;DHT22;5198;52.382;9.020;2023-07-31T01:07:34;17.50;99.90
10306;DHT22;5198;52.382;9.020;2023-07-31T01:11:43;17.50;99.90
10306;DHT22;5198;52.382;9.020;2023-07-31T01:15:48;17.50;99.90
10306;DHT22;5198;52.382;9.020;2023-07-31T01:19:51;17.50;99.90
10306;DHT22;5198;52.382;9.020;2023-07-31T01:24:06;17.40;99.90
10306;DHT22;5198;52.382;9.020;2023-07-31T01:28:13;17.40;99.90
10306;DHT22;5198;52.382;9.020;2023-07-31T01:32:21;17.40;99.90
10306;DHT22;5198;52.382;9.020;2023-07-31T01:36:25;17.40;99.90
10306;DHT22;5198;52.382;9.020;2023-07-31T01:40:28;17.40;99.90
10306;DHT22;5198;52.382;9.020;2023-07-31T01:44:34;17.40;99.90
10306;DHT22;5198;52.382;9.020;2023-07-31T01:48:37;17.40;99.90
10306;DHT22;5198;52.382;9.020;2023-07-31T01:52:40;17.40;99.90
10306;DHT22;5198;52.382;9.020;2023-07-31T01:56:43;17.40;99.90
10306;DHT22;5198;52.382;9.020;2023-07-31T02:00:47;17.30;99.90
10306;DHT22;5198;52.382;9.020;2023-07-31T02:04:50;17.30;99.90
10306;DHT22;5198;52.382;9.020;2023-07-31T02:08:53;17.30;99.90
10306;DHT22;5198;52.382;9.020;2023-07-31T02:12:59;17.30;99.90
10306;DHT22;5198;52.382;9.020;2023-07-31T02:17:04;17.30;99.90
10306;DHT22;5198;52.382;9.020;2023-07-31T02:21:07;17.30;99.90
10306;DHT22;5198;52.382;9.020;2023-07-31T02:25:10;17.30;99.90
10306;DHT22;5198;52.382;9.020;2023-07-31T02:29:13;17.30;99.90
10306;DHT22;5198;52.382;9.020;2023-07-31T02:33:17;17.20;99.90
10306;DHT22;5198;52.382;9.020;2023-07-31T02:37:26;17.20;99.90
10306;DHT22;5198;52.382;9.020;2023-07-31T02:41:30;17.20;99.90
10306;DHT22;5198;52.382;9.020;2023-07-31T02:45:35;17.20;99.90
10306;DHT22;5198;52.382;9.020;2023-07-31T02:49:39;17.20;99.90
10306;DHT22;5198;52.382;9.020;2023-07-31T02:53:42;17.20;99.90
10306;DHT22;5198;52.382;9.020;2023-07-31T02:57:45;17.20;99.90
10306;DHT22;5198;52.382;9.020;2023-07-31T03:01:58;17.10;99.90
10306;DHT22;5198;52.382;9.020;2023-07-31T03:06:02;17.10;99.90
10306;DHT22;5198;52.382;9.020;2023-07-31T03:10:08;17.10;99.90
10306;DHT22;5198;52.382;9.020;2023-07-31T03:14:11;17.10;99.90
10306;DHT22;5198;52.382;9.020;2023-07-31T03:18:14;17.10;99.90
10306;DHT22;5198;52.382;9.020;2023-07-31T03:22:18;17.00;99.90
10306;DHT22;5198;52.382;9.020;2023-07-31T03:26:21;17.00;99.90
10306;DHT22;5198;52.382;9.020;2023-07-31T03:30:24;17.00;99.90
10306;DHT22;5198;52.382;9.020;2023-07-31T03:34:27;17.00;99.90
10306;DHT22;5198;52.382;9.020;2023-07-31T03:38:31;17.00;99.90
10306;DHT22;5198;52.382;9.020;2023-07-31T03:42:34;16.90;99.90
10306;DHT22;5198;52.382;9.020;2023-07-31T03:46:37;16.90;99.90
10306;DHT22;5198;52.382;9.020;2023-07-31T03:50:42;16.90;99.90
10306;DHT22;5198;52.382;9.020;2023-07-31T03:54:46;16.80;99.90
10306;DHT22;5198;52.382;9.020;2023-07-31T03:58:49;16.80;99.90
10306;DHT22;5198;52.382;9.020;2023-07-31T04:02:52;16.70;99.90
10306;DHT22;5198;52.382;9.020;2023-07-31T04:06:55;16.70;99.90
10306;DHT22;5198;52.382;9.020;2023-07-31T04:10:59;16.70;99.90
10306;DHT22;5198;52.382;9.020;2023-07-31T04:15:02;16.60;99.90
10306;DHT22;5198;52.382;9.020;2023-07-31T04:19:05;16.60;99.90
10306;DHT22;5198;52.382;9.020;2023-07-31T04:23:08;16.60;99.90
10306;DHT22;5198;52.382;9.020;2023-07-31T04:27:13;16.60;99.90
10306;DHT22;5198;52.382;9.020;2023-07-31T04:31:16;16.60;99.90
10306;DHT22;5198;52.382;9.020;2023-07-31T04:35:19;16.50;99.90
10306;DHT22;5198;52.382;9.020;2023-07-31T04:39:22;16.50;99.90
10306;DHT22;5198;52.382;9.020;2023-07-31T04:43:26;16.50;99.90
10306;DHT22;5198;52.382;9.020;2023-07-31T04:47:29;16.50;99.90
10306;DHT22;5198;52.382;9.020;2023-07-31T04:51:32;16.50;99.90
10306;DHT22;5198;52.382;9.020;2023-07-31T04:55:35;16.40;99.90
10306;DHT22;5198;52.382;9.020;2023-07-31T04:59:39;16.40;99.90
10306;DHT22;5198;52.382;9.020;2023-07-31T05:03:42;16.40;99.90
10306;DHT22;5198;52.382;9.020;2023-07-31T05:07:45;16.40;99.90
10306;DHT22;5198;52.382;9.020;2023-07-31T05:11:48;16.50;99.90
10306;DHT22;5198;52.382;9.020;2023-07-31T05:15:52;16.50;99.90
10306;DHT22;5198;52.382;9.020;2023-07-31T05:19:57;16.50;99.90
10306;DHT22;5198;52.382;9.020;2023-07-31T05:24:00;16.60;99.90
10306;DHT22;5198;52.382;9.020;2023-07-31T05:28:03;16.60;99.90
10306;DHT22;5198;52.382;9.020;2023-07-31T05:32:08;16.60;99.90
10306;DHT22;5198;52.382;9.020;2023-07-31T05:36:11;16.70;99.90
10306;DHT22;5198;52.382;9.020;2023-07-31T05:40:15;16.80;99.90
10306;DHT22;5198;52.382;9.020;2023-07-31T05:44:18;16.80;99.90
10306;DHT22;5198;52.382;9.020;2023-07-31T05:48:22;16.90;99.90
10306;DHT22;5198;52.382;9.020;2023-07-31T05:52:25;16.90;99.90
10306;DHT22;5198;52.382;9.020;2023-07-31T05:56:28;16.90;99.90
10306;DHT22;5198;52.382;9.020;2023-07-31T06:00:31;16.90;99.90
10306;DHT22;5198;52.382;9.020;2023-07-31T06:08:41;17.00;99.90
10306;DHT22;5198;52.382;9.020;2023-07-31T06:12:44;17.00;99.90
10306;DHT22;5198;52.382;9.020;2023-07-31T06:16:48;17.00;99.90
10306;DHT22;5198;52.382;9.020;2023-07-31T06:20:51;17.00;99.90
10306;DHT22;5198;52.382;9.020;2023-07-31T06:25:04;17.00;99.90
10306;DHT22;5198;52.382;9.020;2023-07-31T06:29:07;17.00;99.90
10306;DHT22;5198;52.382;9.020;2023-07-31T06:33:12;17.00;99.90
10306;DHT22;5198;52.382;9.020;2023-07-31T06:37:15;17.00;99.90
10306;DHT22;5198;52.382;9.020;2023-07-31T06:41:19;16.90;99.90
10306;DHT22;5198;52.382;9.020;2023-07-31T06:45:22;17.00;99.90
10306;DHT22;5198;52.382;9.020;2023-07-31T06:54:02;16.90;99.90
10306;DHT22;5198;52.382;9.020;2023-07-31T06:58:06;17.00;99.90
10306;DHT22;5198;52.382;9.020;2023-07-31T07:02:09;17.00;99.90
10306;DHT22;5198;52.382;9.020;2023-07-31T07:06:12;17.00;99.90
10306;DHT22;5198;52.382;9.020;2023-07-31T07:10:15;17.00;99.90
10306;DHT22;5198;52.382;9.020;2023-07-31T07:14:19;17.00;99.90
10306;DHT22;5198;52.382;9.020;2023-07-31T07:18:23;17.00;99.90
10306;DHT22;5198;52.382;9.020;2023-07-31T07:22:26;17.10;99.90
10306;DHT22;5198;52.382;9.020;2023-07-31T07:26:30;17.20;99.90
10306;DHT22;5198;52.382;9.020;2023-07-31T07:30:35;17.20;99.90
10306;DHT22;5198;52.382;9.020;2023-07-31T07:34:40;17.20;99.90
10306;DHT22;5198;52.382;9.020;2023-07-31T07:38:42;17.30;99.90
10306;DHT22;5198;52.382;9.020;2023-07-31T07:42:45;17.40;99.90
10306;DHT22;5198;52.382;9.020;2023-07-31T07:46:50;17.40;99.90
10306;DHT22;5198;52.382;9.020;2023-07-31T07:50:53;17.60;99.90
10306;DHT22;5198;52.382;9.020;2023-07-31T07:54:56;17.70;99.90
10306;DHT22;5198;52.382;9.020;2023-07-31T07:58:58;17.80;99.90
10306;DHT22;5198;52.382;9.020;2023-07-31T08:03:03;17.90;99.90
10306;DHT22;5198;52.382;9.020;2023-07-31T08:07:06;18.00;99.90
10306;DHT22;5198;52.382;9.020;2023-07-31T08:11:09;18.00;99.90
10306;DHT22;5198;52.382;9.020;2023-07-31T08:15:12;18.10;99.90
10306;DHT22;5198;52.382;9.020;2023-07-31T08:19:16;18.10;99.90
10306;DHT22;5198;52.382;9.020;2023-07-31T08:23:19;18.10;99.90
10306;DHT22;5198;52.382;9.020;2023-07-31T08:27:22;18.10;99.90
10306;DHT22;5198;52.382;9.020;2023-07-31T08:31:25;18.10;99.90
10306;DHT22;5198;52.382;9.020;2023-07-31T08:35:29;18.10;99.90
10306;DHT22;5198;52.382;9.020;2023-07-31T08:39:33;18.10;99.90
10306;DHT22;5198;52.382;9.020;2023-07-31T08:47:47;18.20;99.90
10306;DHT22;5198;52.382;9.020;2023-07-31T08:51:52;18.20;99.90
10306;DHT22;5198;52.382;9.020;2023-07-31T08:55:55;18.30;99.90
10306;DHT22;5198;52.382;9.020;2023-07-31T08:59:59;18.30;99.90
10306;DHT22;5198;52.382;9.020;2023-07-31T09:04:02;18.30;99.90
10306;DHT22;5198;52.382;9.020;2023-07-31T09:08:08;18.30;99.90
10306;DHT22;5198;52.382;9.020;2023-07-31T09:12:12;18.30;99.90
10306;DHT22;5198;52.382;9.020;2023-07-31T09:16:15;18.40;99.90
10306;DHT22;5198;52.382;9.020;2023-07-31T09:20:27;18.40;99.90
10306;DHT22;5198;52.382;9.020;2023-07-31T09:24:31;18.40;99.90
10306;DHT22;5198;52.382;9.020;2023-07-31T09:28:34;18.40;99.90
10306;DHT22;5198;52.382;9.020;2023-07-31T09:32:38;18.40;99.90
10306;DHT22;5198;52.382;9.020;2023-07-31T09:36:41;18.50;99.90
10306;DHT22;5198;52.382;9.020;2023-07-31T09:40:58;18.50;99.90
10306;DHT22;5198;52.382;9.020;2023-07-31T09:45:09;18.50;99.90
10306;DHT22;5198;52.382;9.020;2023-07-31T09:49:19;18.60;99.90
10306;DHT22;5198;52.382;9.020;2023-07-31T09:53:27;18.60;99.90
10306;DHT22;5198;52.382;9.020;2023-07-31T09:57:32;18.70;99.90
10306;DHT22;5198;52.382;9.020;2023-07-31T10:01:35;18.70;99.90
10306;DHT22;5198;52.382;9.020;2023-07-31T10:05:40;18.80;99.90
10306;DHT22;5198;52.382;9.020;2023-07-31T10:09:45;18.90;99.90
10306;DHT22;5198;52.382;9.020;2023-07-31T10:13:50;19.00;99.90
10306;DHT22;5198;52.382;9.020;2023-07-31T10:26:30;19.20;99.90
10306;DHT22;5198;52.382;9.020;2023-07-31T10:30:36;19.30;99.90
10306;DHT22;5198;52.382;9.020;2023-07-31T10:34:40;19.30;99.90
10306;DHT22;5198;52.382;9.020;2023-07-31T10:38:45;19.40;99.90
10306;DHT22;5198;52.382;9.020;2023-07-31T10:42:48;19.40;99.90
10306;DHT22;5198;52.382;9.020;2023-07-31T10:46:55;19.50;99.90
10306;DHT22;5198;52.382;9.020;2023-07-31T10:50:58;19.50;99.90
10306;DHT22;5198;52.382;9.020;2023-07-31T10:55:14;19.50;99.90
10306;DHT22;5198;52.382;9.020;2023-07-31T10:59:17;19.50;99.90
10306;DHT22;5198;52.382;9.020;2023-07-31T11:03:24;19.50;99.90
10306;DHT22;5198;52.382;9.020;2023-07-31T11:07:35;19.50;99.90
10306;DHT22;5198;52.382;9.020;2023-07-31T11:11:48;19.50;99.90
10306;DHT22;5198;52.382;9.020;2023-07-31T11:15:53;19.50;99.90
10306;DHT22;5198;52.382;9.020;2023-07-31T11:19:58;19.50;99.90
10306;DHT22;5198;52.382;9.020;2023-07-31T11:24:03;19.50;99.90
10306;DHT22;5198;52.382;9.020;2023-07-31T11:28:08;19.50;99.90
10306;DHT22;5198;52.382;9.020;2023-07-31T11:32:15;19.40;99.90
10306;DHT22;5198;52.382;9.020;2023-07-31T11:36:20;19.40;99.90
10306;DHT22;5198;52.382;9.020;2023-07-31T11:40:23;19.40;99.90
10306;DHT22;5198;52.382;9.020;2023-07-31T11:44:37;19.30;99.90
10306;DHT22;5198;52.382;9.020;2023-07-31T11:48:40;19.30;99.90
10306;DHT22;5198;52.382;9.020;2023-07-31T11:52:45;19.30;99.90
10306;DHT22;5198;52.382;9.020;2023-07-31T11:56:48;19.30;99.90
10306;DHT22;5198;52.382;9.020;2023-07-31T12:00:52;19.30;99.90
10306;DHT22;5198;52.382;9.020;2023-07-31T12:04:55;19.40;99.90
10306;DHT22;5198;52.382;9.020;2023-07-31T12:09:01;19.40;99.90
10306;DHT22;5198;52.382;9.020;2023-07-31T12:13:05;19.50;99.90
10306;DHT22;5198;52.382;9.020;2023-07-31T12:17:08;19.50;99.90
10306;DHT22;5198;52.382;9.020;2023-07-31T12:21:14;19.50;99.90
10306;DHT22;5198;52.382;9.020;2023-07-31T12:25:19;19.60;99.90
10306;DHT22;5198;52.382;9.020;2023-07-31T12:29:22;19.60;99.90
10306;DHT22;5198;52.382;9.020;2023-07-31T12:33:29;19.60;99.90
10306;DHT22;5198;52.382;9.020;2023-07-31T12:37:32;19.60;99.90
10306;DHT22;5198;52.382;9.020;2023-07-31T12:41:37;19.60;99.90
10306;DHT22;5198;52.382;9.020;2023-07-31T12:45:40;19.70;99.90
10306;DHT22;5198;52.382;9.020;2023-07-31T12:49:43;19.70;99.90
10306;DHT22;5198;52.382;9.020;2023-07-31T12:53:46;19.80;99.90
10306;DHT22;5198;52.382;9.020;2023-07-31T12:57:50;19.80;99.90
10306;DHT22;5198;52.382;9.020;2023-07-31T13:01:55;19.80;99.90
10306;DHT22;5198;52.382;9.020;2023-07-31T13:05:58;19.90;99.90
10306;DHT22;5198;52.382;9.020;2023-07-31T13:10:01;19.90;99.90
10306;DHT22;5198;52.382;9.020;2023-07-31T13:14:06;19.90;99.90
10306;DHT22;5198;52.382;9.020;2023-07-31T13:18:09;19.90;99.90
10306;DHT22;5198;52.382;9.020;2023-07-31T13:22:12;19.90;99.90
10306;DHT22;5198;52.382;9.020;2023-07-31T13:26:15;19.90;99.90
10306;DHT22;5198;52.382;9.020;2023-07-31T13:30:19;19.90;99.90
10306;DHT22;5198;52.382;9.020;2023-07-31T13:34:22;19.90;99.90
10306;DHT22;5198;52.382;9.020;2023-07-31T13:38:25;19.90;99.90
10306;DHT22;5198;52.382;9.020;2023-07-31T13:42:28;19.80;99.90
10306;DHT22;5198;52.382;9.020;2023-07-31T13:46:32;19.80;99.90
10306;DHT22;5198;52.382;9.020;2023-07-31T13:50:35;19.80;99.90
10306;DHT22;5198;52.382;9.020;2023-07-31T13:54:38;19.80;99.90
10306;DHT22;5198;52.382;9.020;2023-07-31T13:58:41;19.80;99.90
10306;DHT22;5198;52.382;9.020;2023-07-31T14:02:45;19.70;99.90
10306;DHT22;5198;52.382;9.020;2023-07-31T14:06:48;19.70;99.90
10306;DHT22;5198;52.382;9.020;2023-07-31T14:10:52;19.70;99.90
10306;DHT22;5198;52.382;9.020;2023-07-31T14:14:55;19.70;99.90
10306;DHT22;5198;52.382;9.020;2023-07-31T14:18:59;19.70;99.90
10306;DHT22;5198;52.382;9.020;2023-07-31T14:23:03;19.70;99.90
10306;DHT22;5198;52.382;9.020;2023-07-31T14:27:06;19.80;99.90
10306;DHT22;5198;52.382;9.020;2023-07-31T14:31:09;19.90;99.90
10306;DHT22;5198;52.382;9.020;2023-07-31T14:35:13;20.00;99.90
10306;DHT22;5198;52.382;9.020;2023-07-31T14:39:16;20.10;99.90
10306;DHT22;5198;52.382;9.020;2023-07-31T14:43:19;20.30;99.90
10306;DHT22;5198;52.382;9.020;2023-07-31T14:47:22;20.40;99.90
10306;DHT22;5198;52.382;9.020;2023-07-31T14:51:28;20.40;99.90
10306;DHT22;5198;52.382;9.020;2023-07-31T14:55:31;20.50;99.90
10306;DHT22;5198;52.382;9.020;2023-07-31T14:59:34;20.50;99.90
10306;DHT22;5198;52.382;9.020;2023-07-31T15:03:39;20.50;99.90
10306;DHT22;5198;52.382;9.020;2023-07-31T15:07:43;20.50;99.90
10306;DHT22;5198;52.382;9.020;2023-07-31T15:11:46;20.50;99.90
10306;DHT22;5198;52.382;9.020;2023-07-31T15:15:49;20.40;99.90
10306;DHT22;5198;52.382;9.020;2023-07-31T15:19:52;20.40;99.90
10306;DHT22;5198;52.382;9.020;2023-07-31T15:23:56;20.40;99.90
10306;DHT22;5198;52.382;9.020;2023-07-31T15:27:59;20.40;99.90
10306;DHT22;5198;52.382;9.020;2023-07-31T15:32:02;20.40;99.90
10306;DHT22;5198;52.382;9.020;2023-07-31T15:36:06;20.50;99.90
10306;DHT22;5198;52.382;9.020;2023-07-31T15:40:10;20.50;99.90
10306;DHT22;5198;52.382;9.020;2023-07-31T15:44:13;20.60;99.90
10306;DHT22;5198;52.382;9.020;2023-07-31T15:48:16;20.60;99.90
10306;DHT22;5198;52.382;9.020;2023-07-31T15:52:19;20.60;99.90
10306;DHT22;5198;52.382;9.020;2023-07-31T15:56:23;20.70;99.90
10306;DHT22;5198;52.382;9.020;2023-07-31T16:00:26;20.60;99.90
10306;DHT22;5198;52.382;9.020;2023-07-31T16:04:29;20.60;99.90
10306;DHT22;5198;52.382;9.020;2023-07-31T16:08:32;20.60;99.90
10306;DHT22;5198;52.382;9.020;2023-07-31T16:12:43;20.60;99.90
10306;DHT22;5198;52.382;9.020;2023-07-31T16:16:46;20.50;99.90
10306;DHT22;5198;52.382;9.020;2023-07-31T16:20:49;20.50;99.90
10306;DHT22;5198;52.382;9.020;2023-07-31T16:24:52;20.40;99.90
10306;DHT22;5198;52.382;9.020;2023-07-31T16:28:57;20.40;99.90
10306;DHT22;5198;52.382;9.020;2023-07-31T16:32:59;20.40;99.90
10306;DHT22;5198;52.382;9.020;2023-07-31T16:37:03;20.40;99.90
10306;DHT22;5198;52.382;9.020;2023-07-31T16:41:06;20.40;99.90
10306;DHT22;5198;52.382;9.020;2023-07-31T16:45:10;20.40;99.90
10306;DHT22;5198;52.382;9.020;2023-07-31T16:49:13;20.30;99.90
10306;DHT22;5198;52.382;9.020;2023-07-31T16:53:16;20.30;99.90
10306;DHT22;5198;52.382;9.020;2023-07-31T16:57:19;20.30;99.90
10306;DHT22;5198;52.382;9.020;2023-07-31T17:01:25;20.20;99.90
10306;DHT22;5198;52.382;9.020;2023-07-31T17:05:32;20.20;99.90
10306;DHT22;5198;52.382;9.020;2023-07-31T17:09:35;20.20;99.90
10306;DHT22;5198;52.382;9.020;2023-07-31T17:13:38;20.20;99.90
10306;DHT22;5198;52.382;9.020;2023-07-31T17:17:42;20.10;99.90
10306;DHT22;5198;52.382;9.020;2023-07-31T17:21:45;20.10;99.90
10306;DHT22;5198;52.382;9.020;2023-07-31T17:25:48;20.00;99.90
10306;DHT22;5198;52.382;9.020;2023-07-31T17:29:51;20.00;99.90
10306;DHT22;5198;52.382;9.020;2023-07-31T17:33:55;19.90;99.90
10306;DHT22;5198;52.382;9.020;2023-07-31T17:37:59;19.90;99.90
10306;DHT22;5198;52.382;9.020;2023-07-31T17:42:03;19.90;99.90
10306;DHT22;5198;52.382;9.020;2023-07-31T17:46:07;19.80;99.90
10306;DHT22;5198;52.382;9.020;2023-07-31T17:50:12;19.80;99.90
10306;DHT22;5198;52.382;9.020;2023-07-31T17:54:15;19.70;99.90
10306;DHT22;5198;52.382;9.020;2023-07-31T17:58:18;19.70;99.90
10306;DHT22;5198;52.382;9.020;2023-07-31T18:07:02;19.70;99.90
10306;DHT22;5198;52.382;9.020;2023-07-31T18:11:05;19.70;99.90
10306;DHT22;5198;52.382;9.020;2023-07-31T18:15:09;19.70;99.90
10306;DHT22;5198;52.382;9.020;2023-07-31T18:19:12;19.60;99.90
10306;DHT22;5198;52.382;9.020;2023-07-31T18:23:17;19.60;99.90
10306;DHT22;5198;52.382;9.020;2023-07-31T18:27:20;19.60;99.90
10306;DHT22;5198;52.382;9.020;2023-07-31T18:31:23;19.60;99.90
10306;DHT22;5198;52.382;9.020;2023-07-31T18:35:26;19.50;99.90
10306;DHT22;5198;52.382;9.020;2023-07-31T18:39:30;19.50;99.90
10306;DHT22;5198;52.382;9.020;2023-07-31T18:43:33;19.50;99.90
10306;DHT22;5198;52.382;9.020;2023-07-31T18:47:38;19.40;99.90
10306;DHT22;5198;52.382;9.020;2023-07-31T18:51:43;19.40;99.90
10306;DHT22;5198;52.382;9.020;2023-07-31T18:55:50;19.40;99.90
10306;DHT22;5198;52.382;9.020;2023-07-31T19:00:00;19.40;99.90
10306;DHT22;5198;52.382;9.020;2023-07-31T19:04:04;19.30;99.90
10306;DHT22;5198;52.382;9.020;2023-07-31T19:08:08;19.30;99.90
10306;DHT22;5198;52.382;9.020;2023-07-31T19:12:16;19.30;99.90
10306;DHT22;5198;52.382;9.020;2023-07-31T19:16:19;19.20;99.90
10306;DHT22;5198;52.382;9.020;2023-07-31T19:20:26;19.20;99.90
10306;DHT22;5198;52.382;9.020;2023-07-31T19:24:45;19.10;99.90
10306;DHT22;5198;52.382;9.020;2023-07-31T19:28:50;19.10;99.90
10306;DHT22;5198;52.382;9.020;2023-07-31T19:32:53;19.00;99.90
10306;DHT22;5198;52.382;9.020;2023-07-31T19:36:57;19.00;99.90
10306;DHT22;5198;52.382;9.020;2023-07-31T19:41:01;18.90;99.90
10306;DHT22;5198;52.382;9.020;2023-07-31T19:45:08;18.90;99.90
10306;DHT22;5198;52.382;9.020;2023-07-31T19:49:11;18.90;99.90
10306;DHT22;5198;52.382;9.020;2023-07-31T19:57:41;18.80;99.90
10306;DHT22;5198;52.382;9.020;2023-07-31T20:01:46;18.80;99.90
10306;DHT22;5198;52.382;9.020;2023-07-31T20:06:01;18.80;99.90
10306;DHT22;5198;52.382;9.020;2023-07-31T20:10:05;18.70;99.90
10306;DHT22;5198;52.382;9.020;2023-07-31T20:14:09;18.70;99.90
10306;DHT22;5198;52.382;9.020;2023-07-31T20:18:13;18.60;99.90
10306;DHT22;5198;52.382;9.020;2023-07-31T20:22:16;18.60;99.90
10306;DHT22;5198;52.382;9.020;2023-07-31T20:26:20;18.60;99.90
10306;DHT22;5198;52.382;9.020;2023-07-31T20:30:31;18.50;99.90
10306;DHT22;5198;52.382;9.020;2023-07-31T20:34:47;18.50;99.90
10306;DHT22;5198;52.382;9.020;2023-07-31T20:38:50;18.50;99.90
10306;DHT22;5198;52.382;9.020;2023-07-31T20:42:58;18.50;99.90
10306;DHT22;5198;52.382;9.020;2023-07-31T20:47:02;18.50;99.90
10306;DHT22;5198;52.382;9.020;2023-07-31T20:51:07;18.40;99.90
10306;DHT22;5198;52.382;9.020;2023-07-31T20:55:11;18.40;99.90
10306;DHT22;5198;52.382;9.020;2023-07-31T20:59:15;18.40;99.90
10306;DHT22;5198;52.382;9.020;2023-07-31T21:03:18;18.40;99.90
10306;DHT22;5198;52.382;9.020;2023-07-31T21:07:23;18.30;99.90
10306;DHT22;5198;52.382;9.020;2023-07-31T21:11:26;18.30;99.90
10306;DHT22;5198;52.382;9.020;2023-07-31T21:15:29;18.30;99.90
10306;DHT22;5198;52.382;9.020;2023-07-31T21:19:32;18.30;99.90
10306;DHT22;5198;52.382;9.020;2023-07-31T21:23:36;18.30;99.90
10306;DHT22;5198;52.382;9.020;2023-07-31T21:27:39;18.20;99.90
10306;DHT22;5198;52.382;9.020;2023-07-31T21:31:42;18.20;99.90
10306;DHT22;5198;52.382;9.020;2023-07-31T21:35:45;18.20;99.90
10306;DHT22;5198;52.382;9.020;2023-07-31T21:39:49;18.20;99.90
10306;DHT22;5198;52.382;9.020;2023-07-31T21:43:52;18.20;99.90
10306;DHT22;5198;52.382;9.020;2023-07-31T21:47:55;18.20;99.90
10306;DHT22;5198;52.382;9.020;2023-07-31T21:51:59;18.20;99.90
10306;DHT22;5198;52.382;9.020;2023-07-31T21:56:03;18.10;99.90
10306;DHT22;5198;52.382;9.020;2023-07-31T22:00:07;18.20;99.90
10306;DHT22;5198;52.382;9.020;2023-07-31T22:04:10;18.10;99.90
10306;DHT22;5198;52.382;9.020;2023-07-31T22:08:13;18.20;99.90
10306;DHT22;5198;52.382;9.020;2023-07-31T22:12:17;18.10;99.90
10306;DHT22;5198;52.382;9.020;2023-07-31T22:16:20;18.10;99.90
10306;DHT22;5198;52.382;9.020;2023-07-31T22:20:23;18.10;99.90
10306;DHT22;5198;52.382;9.020;2023-07-31T22:24:26;18.10;99.90
10306;DHT22;5198;52.382;9.020;2023-07-31T22:28:30;18.10;99.90
10306;DHT22;5198;52.382;9.020;2023-07-31T22:32:33;18.00;99.90
10306;DHT22;5198;52.382;9.020;2023-07-31T22:36:36;18.10;99.90
10306;DHT22;5198;52.382;9.020;2023-07-31T22:40:40;18.00;99.90
10306;DHT22;5198;52.382;9.020;2023-07-31T22:44:44;18.00;99.90
10306;DHT22;5198;52.382;9.020;2023-07-31T22:48:47;17.90;99.90
10306;DHT22;5198;52.382;9.020;2023-07-31T22:52:51;17.90;99.90
10306;DHT22;5198;52.382;9.020;2023-07-31T22:56:55;17.80;99.90
10306;DHT22;5198;52.382;9.020;2023-07-31T23:01:03;17.80;99.90
10306;DHT22;5198;52.382;9.020;2023-07-31T23:05:06;17.70;99.90
10306;DHT22;5198;52.382;9.020;2023-07-31T23:09:09;17.70;99.90
10306;DHT22;5198;52.382;9.020;2023-07-31T23:13:12;17.60;99.90
10306;DHT22;5198;52.382;9.020;2023-07-31T23:17:17;17.60;99.90
10306;DHT22;5198;52.382;9.020;2023-07-31T23:21:20;17.60;99.90
10306;DHT22;5198;52.382;9.020;2023-07-31T23:25:22;17.60;99.90
10306;DHT22;5198;52.382;9.020;2023-07-31T23:29:25;17.50;99.90
10306;DHT22;5198;52.382;9.020;2023-07-31T23:33:30;17.50;99.90
10306;DHT22;5198;52.382;9.020;2023-07-31T23:37:33;17.50;99.90
10306;DHT22;5198;52.382;9.020;2023-07-31T23:41:36;17.50;99.90
10306;DHT22;5198;52.382;9.020;2023-07-31T23:45:39;17.50;99.90
10306;DHT22;5198;52.382;9.020;2023-07-31T23:49:43;17.50;99.90
10306;DHT22;5198;52.382;9.020;2023-07-31T23:53:46;17.50;99.90
10306;DHT22;5198;52.382;9.020;2023-07-31T23:57:49;17.50;99.90
